Neptun 1 — YQWA — position and weather

sailwx.info

Track history (hours):
 
Tides and Currents Weather Stations Pressure Air Temp Water Temp Dewpoint Dewpoint Depression Visibility Wind Speed Wind Dir Waves Ship Positions

Neptun 1

Last reported at 2017-Dec-16 12:28 UTC. Time now 2017-Dec-16 12:51 UTC.
Position N 44°21' E 028°41'.

Length 24 m.

Type: Tug. MMSI: 264900051.

Date/timePositionNaut miles runAvg speedWind from/ knotsBaromVisibWave heightAir tempDewpointWater temp
2017-Dec-16 12:28N 44°21' E 028°41'1 1.5
2017-Dec-16 12:00N 44°20' E 028°41'0 0.4
2017-Dec-16 11:28N 44°20' E 028°41'1 1.8
2017-Dec-16 10:59N 44°21' E 028°41'0 0.0
2017-Dec-16 10:26N 44°21' E 028°41'0 0.0
2017-Dec-16 09:59N 44°21' E 028°41'0 0.0
2017-Dec-16 09:29N 44°21' E 028°41'0 0.0
2017-Dec-16 08:59N 44°21' E 028°41'0 0.0
2017-Dec-16 08:29N 44°21' E 028°41'0 0.0
2017-Dec-16 07:59N 44°21' E 028°41'0 0.0
2017-Dec-16 07:29N 44°21' E 028°41'0 0.0
2017-Dec-16 06:59N 44°21' E 028°41'0 0.0
2017-Dec-16 06:29N 44°21' E 028°41'0 0.0
2017-Dec-16 05:59N 44°21' E 028°41'0 0.0
2017-Dec-16 05:29N 44°21' E 028°41'0 0.0
2017-Dec-16 04:59N 44°21' E 028°41'0 0.0
2017-Dec-16 04:29N 44°21' E 028°41'0 0.0
2017-Dec-16 03:59N 44°21' E 028°41'0 0.0
2017-Dec-16 03:29N 44°21' E 028°41'0 0.0
2017-Dec-16 02:59N 44°21' E 028°41'0 0.0
2017-Dec-16 02:29N 44°21' E 028°41'0 0.0
2017-Dec-16 01:59N 44°21' E 028°41'0 0.0
2017-Dec-16 01:29N 44°21' E 028°41'0 0.0
2017-Dec-16 00:59N 44°21' E 028°41'0 0.0
2017-Dec-16 00:29N 44°21' E 028°41'0 0.0
2017-Dec-15 23:59N 44°21' E 028°41'0 0.0
2017-Dec-15 23:29N 44°21' E 028°41'0 0.0
2017-Dec-15 22:59N 44°21' E 028°41'0 0.0
2017-Dec-15 22:26N 44°21' E 028°41'0 0.0
2017-Dec-15 21:59N 44°21' E 028°41'0 0.0
2017-Dec-15 21:29N 44°21' E 028°41'0 0.0
2017-Dec-15 20:59N 44°21' E 028°41'0 0.0
2017-Dec-15 20:29N 44°21' E 028°41'0 0.0
2017-Dec-15 19:59N 44°21' E 028°41'0 0.0
2017-Dec-15 19:29N 44°21' E 028°41'0 0.0
2017-Dec-15 18:59N 44°21' E 028°41'0 0.0
2017-Dec-15 18:29N 44°21' E 028°41'0 0.0
2017-Dec-15 17:59N 44°21' E 028°41'0 0.0
2017-Dec-15 17:29N 44°21' E 028°41'0 0.0
2017-Dec-15 16:59N 44°21' E 028°41'0 0.0
2017-Dec-15 16:29N 44°21' E 028°41'0 0.0
2017-Dec-15 15:59N 44°21' E 028°41'0 0.0
2017-Dec-15 15:29N 44°21' E 028°41'0 0.0
2017-Dec-15 14:59N 44°21' E 028°41'0 0.0
2017-Dec-15 14:26N 44°21' E 028°41'0 0.0
2017-Dec-15 13:35N 44°21' E 028°41'0 0.0
2017-Dec-15 13:29N 44°21' E 028°41'0 0.0
2017-Dec-15 12:59N 44°21' E 028°41'0 0.0
2017-Dec-15 12:29N 44°21' E 028°41'0 0.0
2017-Dec-15 11:59N 44°21' E 028°41'0 0.0
2017-Dec-15 11:29N 44°21' E 028°41'0 0.0
2017-Dec-15 10:59N 44°21' E 028°41'1 1.9
2017-Dec-15 10:31N 44°20' E 028°41'5 9.1
2017-Dec-15 10:01N 44°15' E 028°42'5 9.6
2017-Dec-15 09:30N 44°10' E 028°42'4 8.8
2017-Dec-15 09:00N 44°06' E 028°43'4 8.2
2017-Dec-15 08:30N 44°09' E 028°40'0 0.0
2017-Dec-13 08:07N 44°10' E 028°40'0 3.7
2017-Dec-13 08:00N 44°09' E 028°40'4 8.0
2017-Dec-13 07:30N 44°06' E 028°43'3 6.6
2017-Dec-13 07:00N 44°08' E 028°39'  
Track history (hours):
 
Tides and Currents Weather Stations Pressure Air Temp Water Temp Dewpoint Dewpoint Depression Visibility Wind Speed Wind Dir Waves Ship Positions

Neptun 1

Last reported at 2017-Dec-16 12:28 UTC. Time now 2017-Dec-16 12:51 UTC.
Position N 44°21' E 028°41'.

Length 24 m.

Type: Tug. MMSI: 264900051.

Date/timePositionNaut miles runAvg speedWind from/ knotsBaromVisibWave heightAir tempDewpointWater temp
2017-Dec-16 12:28N 44°21' E 028°41'1 1.5
2017-Dec-16 12:00N 44°20' E 028°41'0 0.4
2017-Dec-16 11:28N 44°20' E 028°41'1 1.8
2017-Dec-16 10:59N 44°21' E 028°41'0 0.0
2017-Dec-16 10:26N 44°21' E 028°41'0 0.0
2017-Dec-16 09:59N 44°21' E 028°41'0 0.0
2017-Dec-16 09:29N 44°21' E 028°41'0 0.0
2017-Dec-16 08:59N 44°21' E 028°41'0 0.0
2017-Dec-16 08:29N 44°21' E 028°41'0 0.0
2017-Dec-16 07:59N 44°21' E 028°41'0 0.0
2017-Dec-16 07:29N 44°21' E 028°41'0 0.0
2017-Dec-16 06:59N 44°21' E 028°41'0 0.0
2017-Dec-16 06:29N 44°21' E 028°41'0 0.0
2017-Dec-16 05:59N 44°21' E 028°41'0 0.0
2017-Dec-16 05:29N 44°21' E 028°41'0 0.0
2017-Dec-16 04:59N 44°21' E 028°41'0 0.0
2017-Dec-16 04:29N 44°21' E 028°41'0 0.0
2017-Dec-16 03:59N 44°21' E 028°41'0 0.0
2017-Dec-16 03:29N 44°21' E 028°41'0 0.0
2017-Dec-16 02:59N 44°21' E 028°41'0 0.0
2017-Dec-16 02:29N 44°21' E 028°41'0 0.0
2017-Dec-16 01:59N 44°21' E 028°41'0 0.0
2017-Dec-16 01:29N 44°21' E 028°41'0 0.0
2017-Dec-16 00:59N 44°21' E 028°41'0 0.0
2017-Dec-16 00:29N 44°21' E 028°41'0 0.0
2017-Dec-15 23:59N 44°21' E 028°41'0 0.0
2017-Dec-15 23:29N 44°21' E 028°41'0 0.0
2017-Dec-15 22:59N 44°21' E 028°41'0 0.0
2017-Dec-15 22:26N 44°21' E 028°41'0 0.0
2017-Dec-15 21:59N 44°21' E 028°41'0 0.0
2017-Dec-15 21:29N 44°21' E 028°41'0 0.0
2017-Dec-15 20:59N 44°21' E 028°41'0 0.0
2017-Dec-15 20:29N 44°21' E 028°41'0 0.0
2017-Dec-15 19:59N 44°21' E 028°41'0 0.0
2017-Dec-15 19:29N 44°21' E 028°41'0 0.0
2017-Dec-15 18:59N 44°21' E 028°41'0 0.0
2017-Dec-15 18:29N 44°21' E 028°41'0 0.0
2017-Dec-15 17:59N 44°21' E 028°41'0 0.0
2017-Dec-15 17:29N 44°21' E 028°41'0 0.0
2017-Dec-15 16:59N 44°21' E 028°41'0 0.0
2017-Dec-15 16:29N 44°21' E 028°41'0 0.0
2017-Dec-15 15:59N 44°21' E 028°41'0 0.0
2017-Dec-15 15:29N 44°21' E 028°41'0 0.0
2017-Dec-15 14:59N 44°21' E 028°41'0 0.0
2017-Dec-15 14:26N 44°21' E 028°41'0 0.0
2017-Dec-15 13:35N 44°21' E 028°41'0 0.0
2017-Dec-15 13:29N 44°21' E 028°41'0 0.0
2017-Dec-15 12:59N 44°21' E 028°41'0 0.0
2017-Dec-15 12:29N 44°21' E 028°41'0 0.0
2017-Dec-15 11:59N 44°21' E 028°41'0 0.0
2017-Dec-15 11:29N 44°21' E 028°41'0 0.0
2017-Dec-15 10:59N 44°21' E 028°41'1 1.9
2017-Dec-15 10:31N 44°20' E 028°41'5 9.1
2017-Dec-15 10:01N 44°15' E 028°42'5 9.6
2017-Dec-15 09:30N 44°10' E 028°42'4 8.8
2017-Dec-15 09:00N 44°06' E 028°43'4 8.2
2017-Dec-15 08:30N 44°09' E 028°40'0 0.0
2017-Dec-13 08:07N 44°10' E 028°40'0 3.7
2017-Dec-13 08:00N 44°09' E 028°40'4 8.0
2017-Dec-13 07:30N 44°06' E 028°43'3 6.6
2017-Dec-13 07:00N 44°08' E 028°39'  

Dump ship's entire track history